»·PEaware :: DAL21 KSFO-KLGB

DAL21 :: KSFO-KLGB

FLIGHT INFORMATION

Flight Status: Arrived
Operator:
Delta Air Lines
More flights by this operator :: More flights under this callsign
Pilot: Ben F. (13029)
Aircraft: MCDONNELL-DOUGLAS MD-88
(MD88)
More flights by this aircraft type
Origin: KSFO San Francisco Intl
United States
Destination: KLGB Long Beach
United States
More flights between these airports :: More routes between these airports
Route: OFFSH1 MCKEY TILLT BAUBB1
File this flight plan on PilotEdge
Remarks: PBN / A1B2 DOF / 180711 REG / N888SB EET / KZLA0027 OPR / DAL PER / C RMK / TCAS SIMBRIEF
Altitude:
(Current/Filed)
33,000ft
Speed:
(Current/Filed)
454kts
Departed: 11-Jul-18 02:16 PM
Arrived: 11-Jul-18 03:23 PM
Distance/Time
Traveled:
307nm/1:07
Distance/Time
To Go:
Arrived

Flight Plot

Page will automatically refresh every two minutes.

Flight plan parsing failed; only flown route is shown


Map Options




Map Legend


Flown Route
Filed Route
Departure Airport
Arrival Airport
Navaid (VOR, NDB)
Fix

Horizontal Profiles

Position Reports

Time Latitude Longitude Heading Altitude Ground
Speed
11-Jul-18 13:57 37.616679 -122.381746 22 29ft 0kts
11-Jul-18 13:58 37.616679 -122.381746 22 29ft 0kts
11-Jul-18 13:59 37.616679 -122.381746 22 29ft 0kts
11-Jul-18 14:00 37.616679 -122.381746 22 29ft 0kts
11-Jul-18 14:01 37.616679 -122.381746 22 29ft 0kts
11-Jul-18 14:02 37.616679 -122.381746 22 29ft 0kts
11-Jul-18 14:03 37.616679 -122.381746 22 29ft 0kts
11-Jul-18 14:04 37.616679 -122.381746 22 29ft 0kts
11-Jul-18 14:05 37.616675 -122.381748 22 29ft 0kts
11-Jul-18 14:06 37.616119 -122.381824 5 29ft 1kts
11-Jul-18 14:07 37.616059 -122.382005 113 29ft 1kts
11-Jul-18 14:08 37.616075 -122.382049 117 29ft 0kts
11-Jul-18 14:09 37.616068 -122.382033 117 29ft 1kts
11-Jul-18 14:10 37.615665 -122.381280 137 29ft 0kts
11-Jul-18 14:11 37.615655 -122.381268 137 29ft 1kts
11-Jul-18 14:12 37.612528 -122.382356 207 29ft 22kts
11-Jul-18 14:13 37.609848 -122.384261 214 29ft 4kts
11-Jul-18 14:14 37.608514 -122.383939 119 29ft 0kts
11-Jul-18 14:15 37.608514 -122.383939 119 29ft 0kts
11-Jul-18 14:16 37.609756 -122.381664 24 29ft 0kts
11-Jul-18 14:17 37.623387 -122.372780 23 193ft 157kts
11-Jul-18 14:18 37.679624 -122.344820 5 3020ft 283kts
11-Jul-18 14:19 37.769731 -122.368885 319 6517ft 366kts
11-Jul-18 14:20 37.780814 -122.472326 232 9846ft 342kts
11-Jul-18 14:21 37.694742 -122.534757 222 13300ft 393kts
11-Jul-18 14:22 37.615138 -122.641544 221 16803ft 446kts
11-Jul-18 14:23 37.527568 -122.718951 188 23157ft 396kts
11-Jul-18 14:24 37.418009 -122.692160 167 26446ft 416kts
11-Jul-18 14:25 37.302968 -122.661392 168 30638ft 427kts
11-Jul-18 14:26 37.188784 -122.631399 168 33045ft 417kts
11-Jul-18 14:27 37.075610 -122.601702 167 33053ft 416kts
11-Jul-18 14:28 36.963059 -122.572174 167 33052ft 413kts
11-Jul-18 14:29 36.851735 -122.543322 167 33055ft 413kts
11-Jul-18 14:30 36.739635 -122.514335 167 33054ft 413kts
11-Jul-18 14:31 36.627633 -122.485372 167 33054ft 413kts
11-Jul-18 14:32 36.515453 -122.456363 167 33053ft 413kts
11-Jul-18 14:33 36.407909 -122.411442 140 33058ft 412kts
11-Jul-18 14:34 36.333554 -122.304042 131 33055ft 412kts
11-Jul-18 14:35 36.258647 -122.196939 131 33054ft 412kts
11-Jul-18 14:36 36.183657 -122.089892 131 33054ft 412kts
11-Jul-18 14:37 36.108817 -121.982926 131 33053ft 412kts
11-Jul-18 14:38 36.033873 -121.875670 131 33053ft 412kts
11-Jul-18 14:39 35.959290 -121.768792 131 33052ft 412kts
11-Jul-18 14:40 35.884580 -121.661593 131 33054ft 412kts
11-Jul-18 14:41 35.809957 -121.554383 130 33034ft 413kts
11-Jul-18 14:42 35.735330 -121.447025 130 33013ft 414kts
11-Jul-18 14:43 35.660793 -121.339659 131 33009ft 414kts
11-Jul-18 14:44 35.586589 -121.232627 131 33009ft 414kts
11-Jul-18 14:45 35.513242 -121.126691 131 33009ft 417kts
11-Jul-18 14:46 35.452120 -121.007109 102 33041ft 426kts
11-Jul-18 14:47 35.387351 -120.897110 148 33050ft 424kts
11-Jul-18 14:48 35.294147 -120.809605 140 33027ft 423kts
11-Jul-18 14:49 35.202768 -120.718630 140 33027ft 423kts
11-Jul-18 14:50 35.111711 -120.627828 140 33028ft 423kts
11-Jul-18 14:51 35.019206 -120.539523 146 33033ft 422kts
11-Jul-18 14:52 34.922429 -120.462218 145 33034ft 414kts
11-Jul-18 14:53 34.827065 -120.385217 144 33031ft 412kts
11-Jul-18 14:54 34.731889 -120.308335 145 33013ft 413kts
11-Jul-18 14:55 34.636464 -120.231825 145 32991ft 413kts
11-Jul-18 14:56 34.540560 -120.155729 145 32989ft 413kts
11-Jul-18 14:57 34.445506 -120.080285 145 32958ft 412kts
11-Jul-18 14:58 34.351118 -120.005346 145 31133ft 401kts
11-Jul-18 14:59 34.273225 -119.943446 145 29687ft 407kts
11-Jul-18 15:00 34.178213 -119.867938 145 27919ft 413kts
11-Jul-18 15:01 34.084254 -119.791014 136 26133ft 402kts
11-Jul-18 15:02 34.022548 -119.681389 119 26009ft 399kts
11-Jul-18 15:03 33.955687 -119.547859 120 24463ft 396kts
11-Jul-18 15:04 33.899992 -119.436908 119 22491ft 382kts
11-Jul-18 15:05 33.847185 -119.330543 120 21015ft 372kts
11-Jul-18 15:06 33.803064 -119.241862 120 19635ft 368kts
11-Jul-18 15:07 33.751250 -119.137592 120 18037ft 361kts
11-Jul-18 15:08 33.700493 -119.035277 119 16469ft 353kts
11-Jul-18 15:09 33.650729 -118.934810 119 14943ft 346kts
11-Jul-18 15:10 33.602072 -118.836412 119 13484ft 340kts
11-Jul-18 15:11 33.564606 -118.737471 99 12611ft 305kts
11-Jul-18 15:12 33.550123 -118.642013 99 11727ft 298kts
11-Jul-18 15:13 33.534255 -118.543665 99 10118ft 297kts
11-Jul-18 15:14 33.520860 -118.447829 91 9095ft 276kts
11-Jul-18 15:15 33.518739 -118.354351 89 7568ft 287kts
11-Jul-18 15:16 33.538071 -118.268055 66 6434ft 275kts
11-Jul-18 15:17 33.565554 -118.183990 67 5347ft 265kts
11-Jul-18 15:18 33.591763 -118.102590 71 4345ft 258kts
11-Jul-18 15:19 33.634970 -118.041006 23 3334ft 248kts
11-Jul-18 15:20 33.691974 -118.008725 18 3014ft 203kts
11-Jul-18 15:21 33.734365 -118.030606 294 2598ft 196kts
11-Jul-18 15:22 33.764120 -118.087382 312 1261ft 206kts
11-Jul-18 15:23 33.800371 -118.129970 310 367ft 157kts
11-Jul-18 15:24 33.818228 -118.151414 22 46ft 13kts
11-Jul-18 15:25 33.818757 -118.147141 49 46ft 12kts
11-Jul-18 15:26 33.818969 -118.146147 103 46ft 0kts

Navigation Log

Ident Type
Flight plan parsing failed, navigation log unavailable